Nearby METAR Reports

 

EGFF - Cardiff-Wales Ar, United Kingdom
Distance from station: SSW 23km
Updated: 02/04/2020 15:20
Overcast
Overcast
 Wind from W
Wind: W 26 km/h
Temperature: 10°C
Wind Chill: 7°C
Dew Point: 7°C
Humidity: 82%
Barometer: 1017 hPa
Clouds: Overcast
Visibility: 10 km
Cloud details: Mostly cloudy 914 m
Overcast 1250 m
2020/04/02 14:20 EGFF 021420Z AUTO 27014KT 9999 BKN030 OVC041 10/07 Q1017
EGGD - Bristol/Lulsgate, United Kingdom
Distance from station: ESE 43km
Updated: 02/04/2020 15:20
Mostly cloudy
Mostly cloudy
 Wind from WSW
Wind: WSW 24 km/h
Temperature: 10°C
Wind Chill: 7°C
Dew Point: 7°C
Humidity: 82%
Barometer: 1016 hPa
Clouds: Mostly cloudy
Visibility: 10 km
Cloud details: Partly cloudy 305 m
Mostly cloudy 945 m
2020/04/02 14:20 EGGD 021420Z AUTO 25013KT 9999 SCT010 BKN031 10/07 Q1016
 
EGDY - Yeovilton (navy), United Kingdom
Distance from station: SE 77km
Updated: 02/04/2020 15:20
Partly cloudy
Partly cloudy
 Wind from WNW
Wind: WNW 28 km/h
Temperature: 12°C
Dew Point: 6°C
Humidity: 67%
Barometer: 1016 hPa
Clouds: Partly cloudy
Visibility: 10 km
Cloud details: Partly cloudy 792 m
Partly cloudy 1402 m
2020/04/02 14:20 EGDY 021420Z 29015KT 9999 SCT026 SCT046 12/06 Q1016 NOSIG RMK BLU BLU
EGTE - Exeter Airport, United Kingdom
Distance from station: S 96km
Updated: 02/04/2020 15:20
Partly cloudy
Partly cloudy
 Wind from WNW
Wind: WNW 28 km/h
Temperature: 13°C
Dew Point: 7°C
Humidity: 67%
Barometer: 1017 hPa
Clouds: Partly cloudy
Visibility: 10 km
Cloud details: Partly cloudy 853 m
2020/04/02 14:20 EGTE 021420Z 30015KT 9999 SCT028 13/07 Q1017